Time;durP1;ratioP1;P1;durP2;ratioP2;P2;SDS_P1;SDS_P2;PMS_P1;PMS_P2;Temp;Humidity;BMP_temperature;BMP_pressure;BME280_temperature;BME280_humidity;BME280_pressure;Samples;Min_cycle;Max_cycle;Signal;HPM_P1;HPM_P2
2022/08/24 00:01:07;;;;;;;;;7.75;7.25;;;;;26.38;48.34;101161.41;5011091;28;45490;-54
2022/08/24 00:03:34;;;;;;;;;7.50;7.25;;;;;26.37;48.04;101160.56;5002421;28;47957;-59
2022/08/24 00:06:00;;;;;;;;;7.00;7.00;;;;;26.38;48.10;101156.09;5010056;28;45775;-56
2022/08/24 00:08:26;;;;;;;;;9.00;7.00;;;;;26.37;47.94;101160.56;5007375;28;45657;-55
2022/08/24 00:10:52;;;;;;;;;7.25;6.50;;;;;26.37;47.98;101157.06;5010171;28;45323;-59
2022/08/24 00:13:19;;;;;;;;;8.00;6.50;;;;;26.36;48.33;101152.69;5013845;28;46455;-53
2022/08/24 00:15:45;;;;;;;;;8.00;6.00;;;;;26.38;48.38;101158.75;5014979;28;45446;-55
2022/08/24 00:18:11;;;;;;;;;6.00;6.00;;;;;26.36;47.80;101158.84;4998119;28;45482;-54
2022/08/24 00:20:37;;;;;;;;;7.50;6.25;;;;;26.36;48.19;101158.03;4997186;28;45562;-55
2022/08/24 00:23:03;;;;;;;;;8.00;6.75;;;;;26.37;47.92;101159.72;5005873;28;45551;-52
2022/08/24 00:25:30;;;;;;;;;5.75;5.50;;;;;26.35;48.23;101154.50;4997294;28;45363;-52
2022/08/24 00:27:55;;;;;;;;;6.25;6.00;;;;;26.36;48.08;101155.34;5008861;28;46801;-54
2022/08/24 00:30:21;;;;;;;;;6.25;4.75;;;;;26.35;48.17;101157.16;5009752;28;45655;-54
2022/08/24 00:32:47;;;;;;;;;7.00;6.50;;;;;26.35;48.41;101157.16;5006044;28;46753;-56
2022/08/24 00:35:17;;;;;;;;;6.00;6.00;;;;;26.36;48.50;101164.16;5014006;28;45763;-54
2022/08/24 00:37:44;;;;;;;;;6.00;5.25;;;;;26.35;47.90;101156.31;5001945;28;45562;-55
2022/08/24 00:40:23;;;;;;;;;5.00;5.00;;;;;26.35;48.18;101156.31;5013895;28;45490;-53
2022/08/24 00:42:49;;;;;;;;;6.50;5.25;;;;;26.36;48.21;101156.19;5002839;28;46269;-65
2022/08/24 00:45:16;;;;;;;;;5.00;5.00;;;;;26.35;48.12;101151.00;4996520;28;45498;-62
2022/08/24 00:47:55;;;;;;;;;5.50;5.50;;;;;26.36;48.16;101155.34;5001051;28;45493;-65
2022/08/24 00:50:43;;;;;;;;;5.00;5.00;;;;;26.35;47.90;101151.84;5006919;28;45539;-65
2022/08/24 00:53:17;;;;;;;;;4.75;4.50;;;;;26.36;48.33;101147.38;5008559;28;45556;-59
2022/08/24 00:55:47;;;;;;;;;7.00;5.50;;;;;26.35;48.24;101149.19;5003325;28;45495;-62
2022/08/24 00:58:21;;;;;;;;;5.50;5.50;;;;;26.35;48.05;101151.00;4999049;28;45588;-56
2022/08/24 01:00:51;;;;;;;;;7.00;5.25;;;;;26.33;48.55;101148.47;4998148;28;45186;-52
2022/08/24 01:03:17;;;;;;;;;5.00;5.00;;;;;26.34;48.28;101151.97;5007718;28;48246;-55
2022/08/24 01:05:43;;;;;;;;;6.75;6.00;;;;;26.33;48.23;101158.25;5002912;28;45443;-54
2022/08/24 01:08:10;;;;;;;;;5.25;5.25;;;;;26.33;48.16;101150.28;5008543;28;45204;-56
2022/08/24 01:10:40;;;;;;;;;5.50;5.50;;;;;26.34;48.79;101149.31;5002468;28;45453;-52
2022/08/24 01:13:10;;;;;;;;;7.50;5.00;;;;;26.33;48.30;101150.28;5009850;28;45479;-53
2022/08/24 01:15:45;;;;;;;;;3.75;3.75;;;;;26.34;48.32;101150.19;4999822;28;45582;-58
2022/08/24 01:21:08;;;;;;;;;5.00;4.00;;;;;26.34;48.33;101154.63;4997561;28;45375;-54
2022/08/24 01:23:41;;;;;;;;;4.25;4.25;;;;;26.34;48.71;101151.97;5014113;28;45329;-59
2022/08/24 01:26:12;;;;;;;;;5.00;5.00;;;;;26.34;48.24;101149.31;4997568;28;45895;-53
2022/08/24 01:28:39;;;;;;;;;4.25;4.25;;;;;26.34;48.43;101144.00;5001356;28;45248;-52
2022/08/24 01:31:05;;;;;;;;;5.00;5.00;;;;;26.33;48.43;101147.63;5011693;28;45208;-53
2022/08/24 01:33:31;;;;;;;;;4.25;4.25;;;;;26.33;48.44;101159.09;5000611;28;45773;-53
2022/08/24 01:36:07;;;;;;;;;4.75;4.25;;;;;26.34;48.42;101157.28;5007120;28;45234;-57
2022/08/24 01:38:33;;;;;;;;;6.00;4.75;;;;;26.34;48.54;101154.63;5012618;28;45440;-54
2022/08/24 01:41:02;;;;;;;;;5.00;5.00;;;;;26.34;48.17;101154.63;5002508;28;45642;-52
2022/08/24 01:43:28;;;;;;;;;4.00;3.50;;;;;26.35;48.47;101156.31;5000268;28;46479;-55
2022/08/24 01:45:53;;;;;;;;;5.25;5.25;;;;;26.34;48.39;101159.94;5009952;28;45546;-53
2022/08/24 01:48:19;;;;;;;;;3.50;3.50;;;;;26.34;48.45;101150.19;4996563;28;45410;-54
2022/08/24 01:50:45;;;;;;;;;5.50;4.75;;;;;26.35;48.46;101161.63;5013838;28;45224;-57
2022/08/24 01:53:11;;;;;;;;;4.00;3.00;;;;;26.34;48.50;101158.16;5004215;28;45429;-54
2022/08/24 01:55:37;;;;;;;;;4.75;4.75;;;;;26.35;48.15;101156.31;5001699;28;45604;-54
2022/08/24 01:58:03;;;;;;;;;4.00;4.00;;;;;26.33;48.57;101163.56;4997878;28;45790;-56
2022/08/24 02:00:29;;;;;;;;;5.00;4.00;;;;;26.33;48.61;101155.59;5001359;28;45426;-54
2022/08/24 02:02:55;;;;;;;;;4.00;4.00;;;;;26.33;48.86;101153.78;5004058;28;46782;-54
2022/08/24 02:05:22;;;;;;;;;5.50;4.50;;;;;26.34;48.71;101151.97;5001426;28;45426;-55
2022/08/24 02:07:48;;;;;;;;;4.50;4.50;;;;;26.32;48.65;101152.09;5001386;28;45174;-55
2022/08/24 02:10:15;;;;;;;;;3.25;3.25;;;;;26.32;48.62;101149.44;5009279;28;45277;-56
2022/08/24 02:12:43;;;;;;;;;4.00;4.00;;;;;26.33;48.63;101150.28;5012899;28;46760;-54
2022/08/24 02:15:09;;;;;;;;;4.75;4.75;;;;;26.34;48.22;101144.00;5009391;28;45891;-53
2022/08/24 02:17:36;;;;;;;;;5.50;5.00;;;;;26.34;48.50;101146.66;5005127;28;45519;-54
2022/08/24 02:20:04;;;;;;;;;4.00;4.00;;;;;26.34;48.43;101155.50;4997119;28;45423;-52
2022/08/24 02:22:29;;;;;;;;;3.75;3.75;;;;;26.33;48.85;101155.59;5009539;28;47819;-54
2022/08/24 02:24:55;;;;;;;;;3.50;3.50;;;;;26.32;48.49;101152.09;5001337;28;45199;-51
2022/08/24 02:27:20;;;;;;;;;5.25;3.25;;;;;26.31;48.55;101150.41;5001482;28;45534;-53
2022/08/24 02:29:46;;;;;;;;;5.00;3.25;;;;;26.34;48.57;101159.94;5013492;28;45201;-55
2022/08/24 02:32:11;;;;;;;;;5.00;4.00;;;;;26.33;48.42;101159.09;5005921;28;46913;-53
2022/08/24 02:34:37;;;;;;;;;4.00;4.00;;;;;26.33;48.26;101153.78;5000792;28;45422;-51
2022/08/24 02:37:03;;;;;;;;;4.00;4.00;;;;;26.32;48.75;101149.44;5009781;28;45450;-55
2022/08/24 02:39:28;;;;;;;;;3.00;3.00;;;;;26.32;48.54;101148.56;5007491;28;45492;-58
2022/08/24 02:41:54;;;;;;;;;4.00;4.00;;;;;26.34;48.70;101149.31;4995375;28;45925;-55
2022/08/24 02:44:19;;;;;;;;;3.50;3.50;;;;;26.33;48.70;101148.47;5003628;28;45487;-55
2022/08/24 02:46:45;;;;;;;;;6.00;4.00;;;;;26.33;48.61;101151.13;5006125;28;45335;-54
2022/08/24 02:49:11;;;;;;;;;5.00;4.00;;;;;26.32;48.78;101145.91;5001619;28;47163;-52
2022/08/24 02:51:38;;;;;;;;;3.25;3.25;;;;;26.33;48.98;101150.28;4994969;28;46358;-51
2022/08/24 02:54:04;;;;;;;;;4.00;3.75;;;;;26.33;48.69;101147.63;5007649;28;45393;-55
2022/08/24 02:56:30;;;;;;;;;3.25;3.25;;;;;26.34;48.45;101154.63;4996379;28;45385;-55
2022/08/24 02:58:56;;;;;;;;;6.00;4.50;;;;;26.34;48.71;101154.63;5009741;28;45538;-55
2022/08/24 03:01:22;;;;;;;;;4.50;3.75;;;;;26.33;48.31;101151.13;5010548;28;45575;-56
2022/08/24 03:03:47;;;;;;;;;3.00;3.00;;;;;26.32;48.63;101148.56;4995542;28;45638;-53
2022/08/24 03:06:13;;;;;;;;;4.00;3.75;;;;;26.34;48.79;101152.84;4997539;28;45421;-54
2022/08/24 03:08:38;;;;;;;;;4.25;4.00;;;;;26.32;48.56;101143.25;4996099;28;45426;-57
2022/08/24 03:11:06;;;;;;;;;4.75;3.00;;;;;26.34;48.75;101144.00;5006672;28;45491;-57
2022/08/24 03:13:31;;;;;;;;;3.00;3.00;;;;;26.33;48.49;101155.59;5012696;28;46882;-54
2022/08/24 03:15:58;;;;;;;;;2.50;2.50;;;;;26.34;48.08;101154.63;5007702;28;45716;-55
2022/08/24 03:18:25;;;;;;;;;4.00;4.00;;;;;26.35;48.48;101156.31;4998127;28;45300;-55
2022/08/24 03:20:51;;;;;;;;;3.75;3.75;;;;;26.33;48.31;101153.78;5000918;28;45746;-54
2022/08/24 03:23:17;;;;;;;;;3.75;3.75;;;;;26.33;48.66;101150.28;5009033;28;46124;-53
2022/08/24 03:25:43;;;;;;;;;4.50;4.50;;;;;26.34;48.52;101149.31;5010120;28;45285;-54
2022/08/24 03:28:09;;;;;;;;;4.00;4.00;;;;;26.34;48.89;101146.66;4997993;28;45406;-54
2022/08/24 03:30:34;;;;;;;;;7.75;3.25;;;;;26.34;48.83;101144.00;5005702;28;46589;-54
2022/08/24 03:33:00;;;;;;;;;4.75;4.00;;;;;26.33;48.61;101144.97;5006573;28;45390;-56
2022/08/24 03:42:01;;;;;;;;;3.00;3.00;;;;;26.33;48.70;101143.16;5563889;22;47070;-49
2022/08/24 03:44:26;;;;;;;;;4.00;4.00;;;;;26.34;48.69;101149.31;5034942;28;45524;-47
2022/08/24 03:46:52;;;;;;;;;6.75;4.25;;;;;26.33;48.62;101143.16;5035065;28;45868;-50
2022/08/24 03:49:18;;;;;;;;;3.50;3.50;;;;;26.32;48.98;101138.81;5034662;28;45468;-53
2022/08/24 03:51:44;;;;;;;;;4.00;4.00;;;;;26.33;48.68;101142.28;5026544;28;45544;-55
2022/08/24 03:54:11;;;;;;;;;4.00;4.00;;;;;26.32;48.50;101138.81;5027831;28;46636;-53
2022/08/24 03:56:37;;;;;;;;;5.50;5.00;;;;;26.33;49.06;101139.63;5033038;28;45530;-54
2022/08/24 03:59:03;;;;;;;;;4.50;4.00;;;;;26.33;48.62;101136.97;5032308;28;45422;-56
2022/08/24 04:01:29;;;;;;;;;3.75;3.75;;;;;26.33;48.95;101137.84;5028076;28;47304;-49
2022/08/24 04:03:55;;;;;;;;;5.00;5.00;;;;;26.33;48.85;101134.31;5013935;28;45328;-50
2022/08/24 04:06:21;;;;;;;;;3.25;3.25;;;;;26.32;48.84;101129.97;5014046;28;45414;-53
2022/08/24 04:08:48;;;;;;;;;3.00;3.00;;;;;26.32;48.79;101141.47;5015519;28;45370;-57
2022/08/24 04:11:20;;;;;;;;;5.25;4.25;;;;;26.33;49.29;101139.63;5015612;28;45566;-50
2022/08/24 04:13:46;;;;;;;;;4.00;3.75;;;;;26.32;48.89;101136.16;5028460;28;45355;-61
2022/08/24 04:16:14;;;;;;;;;4.75;3.25;;;;;26.32;48.75;101130.84;5026388;28;45397;-53
2022/08/24 04:18:41;;;;;;;;;5.75;4.00;;;;;26.32;48.76;101137.94;5018829;28;45663;-52
2022/08/24 04:21:22;;;;;;;;;5.00;4.00;;;;;26.32;48.81;101136.16;5028688;28;45908;-58
2022/08/24 04:23:50;;;;;;;;;5.50;4.00;;;;;26.33;48.96;101142.28;5022431;28;45458;-51
2022/08/24 04:26:17;;;;;;;;;5.00;5.00;;;;;26.32;48.94;101144.13;5015417;28;45465;-49
2022/08/24 04:28:42;;;;;;;;;6.00;4.00;;;;;26.32;49.01;101132.63;5025539;28;45411;-50
2022/08/24 04:31:07;;;;;;;;;4.00;4.00;;;;;26.32;48.72;101135.28;5024846;28;45469;-49
2022/08/24 04:33:33;;;;;;;;;5.00;5.00;;;;;26.32;48.70;101132.63;5021044;28;45371;-50
2022/08/24 04:35:58;;;;;;;;;4.75;4.75;;;;;26.31;49.00;101134.44;5021230;28;45451;-50
2022/08/24 04:38:25;;;;;;;;;3.25;3.25;;;;;26.31;49.10;101133.59;5029884;28;45524;-48
2022/08/24 04:40:51;;;;;;;;;4.00;4.00;;;;;26.33;48.86;101136.97;5029343;28;46169;-47
2022/08/24 04:43:17;;;;;;;;;4.75;4.75;;;;;26.32;49.25;101135.28;5028536;28;45354;-47
2022/08/24 04:45:45;;;;;;;;;6.00;6.00;;;;;26.31;48.84;101131.78;5014928;28;45458;-51
2022/08/24 04:48:11;;;;;;;;;4.50;4.50;;;;;26.31;48.88;101134.44;5016074;28;45525;-54
2022/08/24 04:50:39;;;;;;;;;5.25;4.75;;;;;26.31;49.00;101125.63;5025572;28;45227;-51
2022/08/24 04:53:06;;;;;;;;;7.75;6.50;;;;;26.30;49.08;101127.44;5017863;28;45458;-48
2022/08/24 04:55:33;;;;;;;;;7.50;6.00;;;;;26.32;49.09;101130.84;5020761;28;45432;-51
2022/08/24 04:57:59;;;;;;;;;7.00;6.00;;;;;26.31;49.00;101133.59;5022590;28;45705;-49
2022/08/24 05:00:25;;;;;;;;;6.25;4.75;;;;;26.31;49.06;101130.94;5013421;28;52112;-48
2022/08/24 05:02:50;;;;;;;;;5.25;5.25;;;;;26.32;49.19;101129.97;5015070;28;45517;-49
2022/08/24 05:05:15;;;;;;;;;7.75;6.00;;;;;26.31;49.04;101141.56;5014571;28;45303;-47
2022/08/24 05:07:43;;;;;;;;;4.00;4.00;;;;;26.30;49.00;101132.75;5012552;28;45487;-50
2022/08/24 05:10:10;;;;;;;;;5.25;4.25;;;;;26.30;48.97;101134.56;5013201;28;45407;-55
2022/08/24 05:12:36;;;;;;;;;5.00;5.00;;;;;26.30;49.04;101138.06;5013660;28;45332;-47
2022/08/24 05:15:01;;;;;;;;;6.00;5.00;;;;;26.30;48.96;101137.22;5014464;28;45388;-51
2022/08/24 05:17:27;;;;;;;;;5.00;5.00;;;;;26.30;49.34;101142.53;5013516;28;45514;-47
2022/08/24 05:19:52;;;;;;;;;8.00;5.25;;;;;26.30;49.35;101137.22;5013028;28;46032;-49
2022/08/24 05:22:18;;;;;;;;;6.00;6.00;;;;;26.30;48.85;101145.19;5013672;28;45327;-51
2022/08/24 05:24:44;;;;;;;;;5.50;5.50;;;;;26.30;49.04;101143.38;5011506;28;45284;-49
2022/08/24 05:27:09;;;;;;;;;7.00;7.00;;;;;26.28;48.75;101139.16;5023988;28;45466;-49
2022/08/24 05:29:35;;;;;;;;;8.25;5.75;;;;;26.23;49.10;101145.66;5032450;28;46875;-47
2022/08/24 05:32:00;;;;;;;;;7.50;7.50;;;;;26.21;48.96;101146.75;5032684;28;45248;-51
2022/08/24 05:34:26;;;;;;;;;5.50;5.50;;;;;26.17;49.18;101148.78;5033346;28;45582;-50
2022/08/24 05:36:52;;;;;;;;;5.25;5.25;;;;;26.12;49.50;101145.59;5024022;28;45516;-50
2022/08/24 05:39:18;;;;;;;;;6.75;5.00;;;;;26.08;49.14;101147.63;5013314;28;46050;-52
2022/08/24 05:41:45;;;;;;;;;6.50;6.25;;;;;26.05;49.20;101147.00;5011763;28;45387;-56
2022/08/24 05:44:13;;;;;;;;;6.50;6.50;;;;;26.01;49.30;101143.75;5012782;28;45312;-48
2022/08/24 05:46:39;;;;;;;;;6.50;5.50;;;;;25.99;49.94;101150.09;5019757;28;45429;-50
2022/08/24 05:49:04;;;;;;;;;6.25;5.00;;;;;25.96;49.88;101139.72;5032373;28;45422;-49
2022/08/24 05:51:30;;;;;;;;;6.25;5.00;;;;;25.96;49.53;101145.03;5032591;28;45436;-50
2022/08/24 05:53:56;;;;;;;;;5.25;4.75;;;;;25.96;50.02;101145.88;5032771;28;45200;-47
2022/08/24 05:56:22;;;;;;;;;9.00;6.50;;;;;25.95;50.04;101143.34;5028567;28;45823;-46
2022/08/24 05:58:48;;;;;;;;;8.25;6.00;;;;;25.95;49.93;101144.16;5014514;28;45426;-53
2022/08/24 06:01:19;;;;;;;;;7.50;6.50;;;;;25.94;50.03;101145.13;5032106;28;45387;-51
2022/08/24 06:03:45;;;;;;;;;6.25;3.25;;;;;25.95;50.17;101154.78;5032511;28;45440;-49
2022/08/24 06:06:12;;;;;;;;;6.25;4.75;;;;;25.95;49.88;101149.47;5029503;28;45485;-58
2022/08/24 06:08:40;;;;;;;;;6.00;6.00;;;;;25.96;50.00;101151.19;5012599;28;46920;-49
2022/08/24 06:11:06;;;;;;;;;7.00;6.00;;;;;25.92;49.63;101150.56;5012250;28;45767;-60
2022/08/24 06:13:32;;;;;;;;;6.00;5.00;;;;;25.91;50.15;101154.19;5027812;28;45498;-50
2022/08/24 06:16:16;;;;;;;;;6.00;6.00;;;;;25.88;50.14;101154.41;5012959;28;45339;-62
2022/08/24 06:18:41;;;;;;;;;7.00;5.25;;;;;25.85;49.66;101144.00;5032373;28;46516;-62
2022/08/24 06:21:09;;;;;;;;;8.00;7.00;;;;;25.89;49.65;101153.44;5031884;28;46092;-65
2022/08/24 06:23:36;;;;;;;;;6.25;6.25;;;;;25.87;50.20;101152.69;5032376;28;45398;-63
2022/08/24 06:28:47;;;;;;;;;6.75;6.75;;;;;25.88;49.63;101158.88;5014325;28;45228;-62
2022/08/24 06:31:13;;;;;;;;;5.00;5.00;;;;;25.83;50.02;101163.66;5022759;28;45232;-65
2022/08/24 06:33:39;;;;;;;;;5.50;5.50;;;;;25.79;49.80;101160.38;5012476;28;45618;-59
2022/08/24 06:36:04;;;;;;;;;7.50;7.00;;;;;25.80;50.12;101163.91;5024573;28;45657;-58
2022/08/24 06:38:30;;;;;;;;;5.75;5.00;;;;;25.78;49.59;101164.00;5031934;28;46272;-58
2022/08/24 06:40:55;;;;;;;;;8.00;6.00;;;;;25.74;49.78;101163.38;5031755;28;45480;-61
2022/08/24 06:43:21;;;;;;;;;6.00;6.00;;;;;25.73;49.75;101153.72;5032862;28;45332;-50
2022/08/24 06:45:47;;;;;;;;;5.00;5.00;;;;;25.74;50.08;101154.59;5032313;28;45569;-47
2022/08/24 06:48:13;;;;;;;;;6.00;5.50;;;;;25.76;49.62;101153.50;5031343;28;45523;-49
2022/08/24 06:50:39;;;;;;;;;4.50;4.50;;;;;25.77;50.07;101146.38;5031911;28;45405;-48
2022/08/24 06:53:04;;;;;;;;;7.00;4.25;;;;;25.80;49.57;101158.59;5034413;28;45375;-48
2022/08/24 06:55:29;;;;;;;;;6.50;6.50;;;;;25.82;49.98;101157.50;5035753;28;45299;-50
2022/08/24 06:57:55;;;;;;;;;4.75;4.75;;;;;25.85;49.92;101157.28;5035667;28;45449;-54
2022/08/24 07:00:21;;;;;;;;;4.00;4.00;;;;;25.86;49.28;101155.47;5035898;28;45347;-47
2022/08/24 07:02:47;;;;;;;;;6.00;5.00;;;;;25.86;49.19;101156.31;5035577;28;45370;-54
2022/08/24 07:05:13;;;;;;;;;5.00;5.00;;;;;25.87;49.34;101152.69;5030661;28;45527;-51
2022/08/24 07:07:38;;;;;;;;;4.25;3.25;;;;;25.89;49.14;101149.94;5028793;28;45253;-52
2022/08/24 07:10:07;;;;;;;;;5.00;5.00;;;;;25.90;48.96;101152.47;5021228;28;45219;-51
2022/08/24 07:12:32;;;;;;;;;4.25;4.25;;;;;25.93;49.16;101152.25;5021897;28;45512;-50
2022/08/24 07:14:58;;;;;;;;;8.00;5.00;;;;;25.95;48.97;101154.78;5015275;28;45459;-46
2022/08/24 07:17:23;;;;;;;;;5.00;4.25;;;;;25.97;48.90;101154.66;5034763;28;45427;-48
2022/08/24 07:19:49;;;;;;;;;4.00;4.00;;;;;25.99;48.83;101156.28;5016854;28;45519;-48
2022/08/24 07:22:15;;;;;;;;;7.00;4.50;;;;;26.00;48.84;101154.44;5025774;28;45426;-53
2022/08/24 07:24:40;;;;;;;;;5.00;5.00;;;;;26.01;48.82;101157.03;5015551;28;45558;-47
2022/08/24 07:27:05;;;;;;;;;6.25;5.25;;;;;26.02;49.10;101161.34;5022934;28;46010;-51
2022/08/24 07:29:31;;;;;;;;;4.00;3.50;;;;;26.02;48.75;101164.00;5018533;28;45312;-55
2022/08/24 07:31:57;;;;;;;;;6.00;4.50;;;;;26.05;48.63;101165.59;5018311;28;45838;-48
2022/08/24 07:34:23;;;;;;;;;7.00;5.00;;;;;26.04;48.68;101170.03;5035743;28;45586;-52
2022/08/24 07:36:50;;;;;;;;;6.00;5.00;;;;;26.05;48.82;101168.25;5034721;28;46253;-53
2022/08/24 07:39:16;;;;;;;;;7.00;4.75;;;;;26.07;48.10;101169.00;5034778;28;45780;-51
2022/08/24 07:41:43;;;;;;;;;5.25;4.25;;;;;26.09;48.39;101175.00;5034852;28;45698;-52
2022/08/24 07:44:11;;;;;;;;;5.00;5.00;;;;;26.10;48.38;101167.94;5033637;28;45401;-52
2022/08/24 07:46:38;;;;;;;;;5.25;4.25;;;;;26.11;48.79;101169.63;5019532;28;47463;-47
2022/08/24 07:49:03;;;;;;;;;5.00;5.00;;;;;26.11;48.50;101175.78;5025415;28;45241;-50
2022/08/24 07:51:29;;;;;;;;;4.50;4.50;;;;;26.13;48.34;101176.53;5021595;28;45446;-48
2022/08/24 07:53:55;;;;;;;;;3.75;3.75;;;;;26.15;48.18;101179.94;5021318;28;45422;-51
2022/08/24 07:56:20;;;;;;;;;4.75;3.00;;;;;26.16;48.76;101184.28;5015281;28;45853;-51
2022/08/24 07:58:46;;;;;;;;;4.00;4.00;;;;;26.18;48.63;101181.50;5034646;28;45411;-46
2022/08/24 08:01:11;;;;;;;;;4.00;3.00;;;;;26.21;48.87;101181.28;5023883;28;45956;-57
2022/08/24 08:03:36;;;;;;;;;5.00;5.00;;;;;26.21;48.38;101181.28;5014229;28;45586;-55
2022/08/24 08:06:04;;;;;;;;;6.00;4.00;;;;;26.22;48.47;101186.47;5014461;28;46017;-45
2022/08/24 08:08:33;;;;;;;;;5.25;5.00;;;;;26.24;48.02;101189.00;5015651;28;45734;-46
2022/08/24 08:10:58;;;;;;;;;4.00;4.00;;;;;26.24;48.19;101192.53;5014642;28;45509;-45
2022/08/24 08:13:23;;;;;;;;;4.75;4.00;;;;;26.26;48.36;101195.06;5014338;28;45570;-44
2022/08/24 08:15:49;;;;;;;;;4.00;4.00;;;;;26.29;48.16;101196.66;5020888;28;45421;-44
2022/08/24 08:18:17;;;;;;;;;4.00;4.00;;;;;26.30;48.07;101201.84;5026631;28;45307;-44
2022/08/24 08:20:42;;;;;;;;;3.75;3.75;;;;;26.31;48.28;101192.91;5032846;28;45555;-45
2022/08/24 08:25:56;;;;;;;;;3.75;3.00;;;;;26.33;48.16;101200.75;5034904;28;45488;-45
2022/08/24 08:28:23;;;;;;;;;4.00;4.00;;;;;26.34;47.83;101205.13;5034507;28;45442;-45
2022/08/24 08:30:48;;;;;;;;;6.25;5.00;;;;;26.34;48.22;101203.31;5029340;28;45561;-44
2022/08/24 08:33:14;;;;;;;;;3.50;3.50;;;;;26.35;48.35;101196.19;5017507;28;45540;-50
2022/08/24 08:35:40;;;;;;;;;4.25;3.75;;;;;26.36;47.78;101192.56;5024123;28;47451;-49
2022/08/24 08:38:06;;;;;;;;;4.00;4.00;;;;;26.37;47.89;101199.56;5013643;28;45470;-50
2022/08/24 08:40:44;;;;;;;;;4.25;3.50;;;;;26.38;47.82;101203.94;5014343;28;45426;-47
2022/08/24 08:43:28;;;;;;;;;4.25;4.25;;;;;26.38;47.73;101203.94;5015911;28;45530;-47
2022/08/24 08:46:17;;;;;;;;;2.00;1.00;;;;;26.39;48.05;101202.97;5035019;28;46268;-56
2022/08/24 08:49:19;;;;;;;;;4.00;3.00;;;;;26.40;47.42;101194.03;5025158;28;45367;-52
2022/08/24 08:52:04;;;;;;;;;2.50;2.50;;;;;26.42;46.99;101201.88;5014168;28;45270;-52
2022/08/24 08:54:42;;;;;;;;;4.00;3.75;;;;;26.43;47.63;101193.78;5014124;28;45536;-54
2022/08/24 08:57:26;;;;;;;;;5.00;4.00;;;;;26.44;47.78;101186.69;5013706;28;46394;-52
2022/08/24 09:00:09;;;;;;;;;3.00;3.00;;;;;26.45;47.47;101194.53;5012808;28;45566;-50
2022/08/24 09:02:58;;;;;;;;;3.00;3.00;;;;;26.45;46.90;101191.03;5029044;28;45358;-53
2022/08/24 09:05:42;;;;;;;;;3.25;2.75;;;;;26.45;47.16;101189.22;5024130;28;45321;-53
2022/08/24 09:08:48;;;;;;;;;3.00;3.00;;;;;26.45;46.78;101188.38;5030693;28;46049;-49
2022/08/24 09:11:55;;;;;;;;;3.00;3.00;;;;;26.47;46.36;101189.94;5031548;28;45874;-53
2022/08/24 09:14:59;;;;;;;;;4.00;2.25;;;;;26.47;46.70;101181.97;5025280;28;45840;-64
2022/08/24 09:17:35;;;;;;;;;3.00;3.00;;;;;26.49;47.04;101188.03;5023527;28;46144;-57
2022/08/24 09:20:41;;;;;;;;;2.25;2.25;;;;;26.50;46.38;101192.38;5033174;28;45551;-54
2022/08/24 09:23:12;;;;;;;;;5.25;3.25;;;;;26.52;46.54;101194.91;5033039;28;45614;-52
2022/08/24 09:25:47;;;;;;;;;3.00;3.00;;;;;26.52;46.38;101194.91;5033445;28;45347;-47
2022/08/24 09:28:27;;;;;;;;;2.25;2.25;;;;;26.53;46.38;101188.63;5033475;28;45408;-52
2022/08/24 09:31:11;;;;;;;;;2.75;2.75;;;;;26.53;46.13;101186.81;5034095;28;45307;-51
2022/08/24 09:33:48;;;;;;;;;4.00;2.25;;;;;26.55;46.19;101195.53;5033057;28;45639;-50
2022/08/24 09:36:42;;;;;;;;;4.75;3.00;;;;;26.55;46.68;101200.84;5032796;28;45351;-48
2022/08/24 09:39:56;;;;;;;;;4.00;2.00;;;;;26.57;45.96;101200.72;5033092;28;45354;-53
2022/08/24 09:42:51;;;;;;;;;3.00;3.00;;;;;26.57;45.72;101194.56;4994954;28;46468;-50
2022/08/24 09:45:57;;;;;;;;;2.00;2.00;;;;;26.59;46.10;101195.31;5013050;28;45974;-49
2022/08/24 09:48:38;;;;;;;;;2.00;2.00;;;;;26.59;45.76;101192.63;5014259;28;45499;-61
2022/08/24 09:51:28;;;;;;;;;3.00;3.00;;;;;26.58;45.77;101193.59;5013299;28;45597;-49
2022/08/24 09:54:15;;;;;;;;;2.75;2.00;;;;;26.59;45.92;101195.31;5032997;28;46324;-61
2022/08/24 09:56:53;;;;;;;;;3.25;3.25;;;;;26.59;45.35;101195.31;5032862;28;45728;-59
2022/08/24 09:59:54;;;;;;;;;3.25;3.00;;;;;26.59;45.58;101189.97;5033062;28;45539;-59
2022/08/24 10:02:40;;;;;;;;;2.00;2.00;;;;;26.58;45.18;101190.94;5032217;28;45390;-55
2022/08/24 10:05:28;;;;;;;;;2.00;2.00;;;;;26.59;45.41;101189.97;5031037;28;46360;-46
2022/08/24 10:08:40;;;;;;;;;1.50;1.50;;;;;26.59;45.47;101185.50;5032822;28;45460;-50
2022/08/24 10:11:42;;;;;;;;;2.00;2.00;;;;;26.59;45.46;101182.84;4997049;28;45352;-47
2022/08/24 10:14:35;;;;;;;;;5.00;1.50;;;;;26.60;45.34;101175.72;5032621;28;45648;-56
2022/08/24 10:17:28;;;;;;;;;2.25;2.25;;;;;26.60;45.47;101175.72;5032119;28;46518;-52
2022/08/24 10:20:19;;;;;;;;;2.00;2.00;;;;;26.60;45.47;101170.41;5033283;28;45613;-47
2022/08/24 10:23:17;;;;;;;;;3.00;3.00;;;;;26.60;45.48;101170.41;5032810;28;45267;-56
2022/08/24 10:26:19;;;;;;;;;3.00;2.00;;;;;26.60;45.29;101170.41;5033001;28;45400;-52
2022/08/24 10:29:23;;;;;;;;;2.00;2.00;;;;;26.60;45.15;101165.94;5006605;28;47130;-57
2022/08/24 10:32:21;;;;;;;;;2.25;1.50;;;;;26.61;45.44;101156.16;5016815;28;45636;-55
2022/08/24 10:35:14;;;;;;;;;3.00;2.00;;;;;26.61;45.56;101162.31;5036185;28;45232;-45
2022/08/24 10:39:39;;;;;;;;;2.00;2.00;;;;;26.61;45.48;101156.16;5036283;28;45421;-48
2022/08/24 10:41:01;;;;;;;;;3.00;2.00;;;;;26.62;45.59;101163.16;5035580;28;45522;-51
2022/08/24 10:44:03;;;;;;;;;2.25;2.25;;;;;26.62;45.39;101160.50;5036092;28;45311;-48
2022/08/24 10:46:38;;;;;;;;;2.00;2.00;;;;;26.63;45.24;101164.84;5036167;28;45314;-46
2022/08/24 10:49:25;;;;;;;;;2.00;2.00;;;;;26.64;45.17;101163.88;5035965;28;45485;-45
2022/08/24 10:52:37;;;;;;;;;2.00;2.00;;;;;26.64;45.24;101161.22;5035925;28;46069;-48
2022/08/24 10:55:15;;;;;;;;;4.25;2.50;;;;;26.64;45.09;101163.88;5022918;28;45602;-47
2022/08/24 10:57:57;;;;;;;;;3.25;2.25;;;;;26.65;44.83;101153.16;5036108;28;45498;-54
2022/08/24 11:00:27;;;;;;;;;3.00;3.00;;;;;26.65;44.96;101157.59;5037050;28;45287;-45
2022/08/24 11:03:07;;;;;;;;;2.50;1.50;;;;;26.65;45.02;101155.81;5034041;28;47044;-48
2022/08/24 11:05:44;;;;;;;;;1.00;1.00;;;;;26.67;45.01;101153.03;5016556;28;45603;-61
2022/08/24 11:08:26;;;;;;;;;2.00;2.00;;;;;26.67;44.84;101150.34;5015317;28;45197;-52
2022/08/24 11:11:07;;;;;;;;;1.00;1.00;;;;;26.66;44.86;101152.19;5016639;28;45356;-60
2022/08/24 11:13:35;;;;;;;;;2.00;1.75;;;;;26.66;44.85;101143.34;5015587;28;45643;-61
2022/08/24 11:16:01;;;;;;;;;1.00;1.00;;;;;26.66;44.48;101144.22;5016214;28;45339;-59
2022/08/24 11:18:47;;;;;;;;;2.00;2.00;;;;;26.66;45.02;101132.72;5015839;28;45411;-48
2022/08/24 11:21:31;;;;;;;;;1.00;1.00;;;;;26.67;44.72;101129.09;5015668;28;45234;-51
2022/08/24 11:24:01;;;;;;;;;2.00;2.00;;;;;26.66;44.91;101130.91;5016235;28;45596;-53
2022/08/24 11:26:27;;;;;;;;;2.00;2.00;;;;;26.67;44.65;101129.94;5014661;28;45656;-45
2022/08/24 11:29:03;;;;;;;;;3.00;2.00;;;;;26.67;44.38;101116.66;5021824;28;45418;-48
2022/08/24 11:31:37;;;;;;;;;3.75;2.25;;;;;26.69;44.50;101119.19;5032315;28;45390;-47
2022/08/24 11:34:14;;;;;;;;;2.00;2.00;;;;;26.69;44.65;101108.56;5030456;28;46100;-47
2022/08/24 11:36:40;;;;;;;;;2.25;1.50;;;;;26.70;44.65;101112.91;5015319;28;45355;-49
2022/08/24 11:39:26;;;;;;;;;2.25;2.25;;;;;26.71;44.82;101106.63;5013965;28;45439;-48
2022/08/24 11:42:13;;;;;;;;;2.00;2.00;;;;;26.70;44.18;101111.09;5015372;28;45350;-55
2022/08/24 11:44:52;;;;;;;;;2.25;1.50;;;;;26.71;44.64;101106.63;5015113;28;46456;-67
2022/08/24 11:47:27;;;;;;;;;1.00;1.00;;;;;26.74;44.72;101110.84;5028200;28;45758;-57
2022/08/24 11:50:38;;;;;;;;;2.00;2.00;;;;;26.75;44.59;101096.59;5036182;28;45339;-60
2022/08/24 11:53:21;;;;;;;;;2.00;2.00;;;;;26.76;44.59;101095.63;5033776;28;45578;-60
2022/08/24 11:56:17;;;;;;;;;3.00;3.00;;;;;26.76;44.40;101092.97;5034935;28;46208;-59
2022/08/24 11:59:08;;;;;;;;;3.00;2.50;;;;;26.75;44.46;101086.78;5034937;28;45403;-60
2022/08/24 12:01:46;;;;;;;;;2.75;1.00;;;;;26.75;44.13;101088.63;5034907;28;45319;-56